createdAt,value
2023-09-21T00:00:34.141Z,16.15
2023-09-21T00:03:25.730Z,16.17
2023-09-21T00:06:17.550Z,16.47
2023-09-21T00:09:10.281Z,16.64
2023-09-21T00:12:00.609Z,16.79
2023-09-21T00:14:50.921Z,17.32
2023-09-21T00:17:43.893Z,17.18
2023-09-21T00:20:37.643Z,17.03
2023-09-21T00:23:29.365Z,16.96
2023-09-21T00:26:19.947Z,17.03
2023-09-21T00:29:12.188Z,17.47
2023-09-21T00:32:02.538Z,17.47
2023-09-21T00:34:55.598Z,17.69
2023-09-21T00:37:47.809Z,17.27
2023-09-21T00:40:40.246Z,18.12
2023-09-21T00:43:31.223Z,17.47
2023-09-21T00:46:24.006Z,17.32
2023-09-21T00:49:18.508Z,17.59
2023-09-21T00:52:13.485Z,17.85
2023-09-21T00:55:04.145Z,18.36
2023-09-21T00:57:56.636Z,18.34
2023-09-21T01:00:49.019Z,18.11
2023-09-21T01:03:39.892Z,18.19
2023-09-21T01:06:32.152Z,17.01
2023-09-21T01:09:25.136Z,16.52
2023-09-21T01:12:18.254Z,16.54
2023-09-21T01:15:12.162Z,16.51
2023-09-21T01:18:02.601Z,16.07
2023-09-21T01:20:52.975Z,17.00
2023-09-21T01:23:48.141Z,17.40
2023-09-21T01:26:38.540Z,17.45
2023-09-21T01:29:31.273Z,16.86
2023-09-21T01:32:24.561Z,16.62
2023-09-21T01:35:17.354Z,16.13
2023-09-21T01:38:09.104Z,16.09
2023-09-21T01:41:02.571Z,15.71
2023-09-21T01:43:52.862Z,15.65
2023-09-21T01:46:46.648Z,15.90
2023-09-21T01:49:36.887Z,15.53
2023-09-21T01:52:28.748Z,15.72
2023-09-21T01:55:19.569Z,14.86
2023-09-21T01:58:13.163Z,15.37
2023-09-21T02:01:05.143Z,15.20
2023-09-21T02:03:57.370Z,15.78
2023-09-21T02:06:47.706Z,15.75
2023-09-21T02:09:39.111Z,16.37
2023-09-21T02:12:29.371Z,16.62
2023-09-21T02:15:22.472Z,15.86
2023-09-21T02:18:13.299Z,15.71
2023-09-21T02:21:10.114Z,16.12
2023-09-21T02:24:01.654Z,17.07
2023-09-21T02:26:53.686Z,17.01
2023-09-21T02:29:44.226Z,15.85
2023-09-21T02:32:37.382Z,15.71
2023-09-21T02:35:31.157Z,15.31
2023-09-21T02:38:22.151Z,16.37
2023-09-21T02:41:12.579Z,15.94
2023-09-21T02:44:02.963Z,15.77
2023-09-21T02:46:53.885Z,15.90
2023-09-21T02:49:46.772Z,16.05
2023-09-21T02:52:37.560Z,16.44
2023-09-21T02:55:30.989Z,17.21
2023-09-21T02:58:21.421Z,16.75
2023-09-21T03:01:17.361Z,16.59
2023-09-21T03:04:08.324Z,17.05
2023-09-21T03:07:05.386Z,17.12
2023-09-21T03:09:55.667Z,16.64
2023-09-21T03:12:49.317Z,16.60
2023-09-21T03:15:45.293Z,17.20
2023-09-21T03:18:36.010Z,17.39
2023-09-21T03:21:26.594Z,17.32
2023-09-21T03:24:19.795Z,18.00
2023-09-21T03:27:11.945Z,18.00
2023-09-21T03:30:02.564Z,17.96
2023-09-21T03:32:53.154Z,18.08
2023-09-21T03:35:43.607Z,18.04
2023-09-21T03:38:33.902Z,18.12
2023-09-21T03:41:28.372Z,18.65
2023-09-21T03:44:19.073Z,18.23
2023-09-21T03:47:12.599Z,17.57
2023-09-21T03:50:03.248Z,18.09
2023-09-21T03:52:54.307Z,17.81
2023-09-21T03:55:47.858Z,18.07
2023-09-21T03:58:41.112Z,18.39
2023-09-21T04:01:31.660Z,18.94
2023-09-21T04:04:22.324Z,18.62
2023-09-21T04:07:14.067Z,18.38
2023-09-21T04:10:04.912Z,18.15
2023-09-21T04:12:56.794Z,18.62
2023-09-21T04:15:49.816Z,17.78
2023-09-21T04:18:40.262Z,17.48
2023-09-21T04:21:30.749Z,18.03
2023-09-21T04:24:21.427Z,17.69
2023-09-21T04:27:12.860Z,17.17
2023-09-21T04:30:03.443Z,17.19
2023-09-21T04:32:58.737Z,17.01
2023-09-21T04:35:50.232Z,17.23
2023-09-21T04:38:41.140Z,17.09
2023-09-21T04:41:31.944Z,17.32
2023-09-21T04:44:23.693Z,17.04
2023-09-21T04:47:14.098Z,16.52
2023-09-21T04:50:10.192Z,16.80
2023-09-21T04:53:01.205Z,16.54
2023-09-21T04:55:51.492Z,16.08
2023-09-21T04:58:42.000Z,16.08
2023-09-21T05:01:32.585Z,16.20
2023-09-21T05:04:23.031Z,16.34
2023-09-21T05:07:15.940Z,16.72
2023-09-21T05:10:06.961Z,17.22
2023-09-21T05:12:58.938Z,16.69
2023-09-21T05:15:49.463Z,15.89
2023-09-21T05:18:39.848Z,16.13
2023-09-21T05:21:30.270Z,15.73
2023-09-21T05:24:23.146Z,15.90
2023-09-21T05:27:14.303Z,16.19
2023-09-21T05:30:06.306Z,17.03
2023-09-21T05:32:58.092Z,17.32
2023-09-21T05:35:56.935Z,17.78
2023-09-21T05:38:47.323Z,18.27
2023-09-21T05:41:42.658Z,18.41
2023-09-21T05:44:32.906Z,18.65
2023-09-21T05:47:23.353Z,18.75
2023-09-21T05:50:15.077Z,18.61
2023-09-21T05:53:05.358Z,18.21
2023-09-21T05:55:55.621Z,18.70
2023-09-21T05:58:48.468Z,18.88
2023-09-21T06:01:38.720Z,18.84
2023-09-21T06:04:29.279Z,18.92
2023-09-21T06:07:19.629Z,18.89
2023-09-21T06:10:10.635Z,18.90
2023-09-21T06:13:00.947Z,18.98
2023-09-21T06:15:54.117Z,19.17
2023-09-21T06:18:44.852Z,19.15
2023-09-21T06:21:37.496Z,19.27
2023-09-21T06:24:29.430Z,19.67
2023-09-21T06:27:20.263Z,19.44
2023-09-21T06:30:13.537Z,19.87
2023-09-21T06:33:07.105Z,20.12
2023-09-21T06:35:57.346Z,20.33
2023-09-21T06:38:48.232Z,20.16
2023-09-21T06:41:38.992Z,20.22
2023-09-21T06:44:30.683Z,20.56
2023-09-21T06:47:22.611Z,20.66
2023-09-21T06:50:15.521Z,20.69
2023-09-21T06:53:05.905Z,21.07
2023-09-21T06:55:56.458Z,21.17
2023-09-21T06:58:46.689Z,21.19
2023-09-21T07:01:37.079Z,21.18
2023-09-21T07:04:29.508Z,21.06
2023-09-21T07:07:22.636Z,20.79
2023-09-21T07:10:15.994Z,21.54
2023-09-21T07:13:06.945Z,21.20
2023-09-21T07:16:00.233Z,20.94
2023-09-21T07:18:51.229Z,21.70
2023-09-21T07:21:41.697Z,21.67
2023-09-21T07:24:34.950Z,21.49
2023-09-21T07:27:25.943Z,21.64
2023-09-21T07:30:17.986Z,21.58
2023-09-21T07:33:09.605Z,21.55
2023-09-21T07:36:00.057Z,21.57
2023-09-21T07:38:50.365Z,21.45
2023-09-21T07:41:43.723Z,21.31
2023-09-21T07:44:34.021Z,21.72
2023-09-21T07:47:24.567Z,21.98
2023-09-21T07:50:14.849Z,22.28
2023-09-21T07:53:05.628Z,22.22
2023-09-21T07:56:03.148Z,22.29
2023-09-21T07:58:56.032Z,22.24
2023-09-21T08:01:47.941Z,21.62
2023-09-21T08:04:38.430Z,21.44
2023-09-21T08:07:28.926Z,22.03
2023-09-21T08:10:19.435Z,22.23
2023-09-21T08:13:11.754Z,22.41
2023-09-21T08:16:05.327Z,22.40
2023-09-21T08:18:55.682Z,22.45
2023-09-21T08:21:46.188Z,22.21
2023-09-21T08:24:37.472Z,21.76
2023-09-21T08:27:30.743Z,21.52
2023-09-21T08:30:21.302Z,21.92
2023-09-21T08:33:14.203Z,21.39
2023-09-21T08:36:04.715Z,21.89
2023-09-21T08:38:55.309Z,22.53
2023-09-21T08:41:52.262Z,22.65
2023-09-21T08:44:44.937Z,22.53
2023-09-21T08:47:36.145Z,22.82
2023-09-21T08:50:30.972Z,23.00
2023-09-21T08:53:24.335Z,23.00
2023-09-21T08:56:15.602Z,23.32
2023-09-21T08:59:07.585Z,23.35
2023-09-21T09:01:58.175Z,23.75
2023-09-21T09:04:49.998Z,23.31
2023-09-21T09:07:43.912Z,23.48
2023-09-21T09:10:34.505Z,23.55
2023-09-21T09:13:25.076Z,23.49
2023-09-21T09:16:17.545Z,23.78
2023-09-21T09:19:10.548Z,23.62
2023-09-21T09:22:01.397Z,23.43
2023-09-21T09:24:54.729Z,23.26
2023-09-21T09:27:46.443Z,23.21
2023-09-21T09:30:37.196Z,23.15
2023-09-21T09:33:27.589Z,23.31
2023-09-21T09:36:18.088Z,23.04
2023-09-21T09:39:10.106Z,23.06
2023-09-21T09:42:05.344Z,23.98
2023-09-21T09:44:59.480Z,23.66
2023-09-21T09:47:56.678Z,24.00
2023-09-21T09:50:56.455Z,23.85
2023-09-21T09:53:49.247Z,23.81
2023-09-21T09:56:43.053Z,24.47
2023-09-21T09:59:37.016Z,24.32
2023-09-21T10:02:29.396Z,24.27
2023-09-21T10:05:23.721Z,24.35
2023-09-21T10:08:14.255Z,24.15
2023-09-21T10:11:06.486Z,24.39
2023-09-21T10:13:57.880Z,24.32
2023-09-21T10:16:58.510Z,24.46
2023-09-21T10:19:51.426Z,24.21
2023-09-21T10:22:44.339Z,24.33
2023-09-21T10:25:42.901Z,24.34
2023-09-21T10:28:41.473Z,24.03
2023-09-21T10:31:31.818Z,24.54
2023-09-21T10:34:25.155Z,23.92
2023-09-21T10:37:16.859Z,24.22
2023-09-21T10:40:09.928Z,24.74
2023-09-21T10:43:00.325Z,24.14
2023-09-21T10:46:00.619Z,23.91
2023-09-21T10:48:52.540Z,23.83
2023-09-21T10:51:45.420Z,23.59
2023-09-21T10:54:35.817Z,23.50
2023-09-21T10:57:27.935Z,23.36
2023-09-21T11:00:23.671Z,23.65
2023-09-21T11:03:17.354Z,23.78
2023-09-21T11:06:09.557Z,24.03
2023-09-21T11:09:02.639Z,24.06
2023-09-21T11:11:52.959Z,24.21
2023-09-21T11:14:46.873Z,23.86
2023-09-21T11:17:37.730Z,24.29
2023-09-21T11:20:28.509Z,24.11
2023-09-21T11:23:21.419Z,24.05
2023-09-21T11:26:16.369Z,24.35
2023-09-21T11:29:08.975Z,24.02
2023-09-21T11:31:59.250Z,24.55
2023-09-21T11:34:49.999Z,24.19
2023-09-21T11:37:40.392Z,24.67
2023-09-21T11:40:31.014Z,24.72
2023-09-21T11:43:25.054Z,24.71
2023-09-21T11:46:15.475Z,24.29
2023-09-21T11:49:06.668Z,24.27
2023-09-21T11:51:59.173Z,24.71
2023-09-21T11:54:49.691Z,24.55
2023-09-21T11:57:43.601Z,24.89
2023-09-21T12:00:49.987Z,24.47
2023-09-21T12:03:42.529Z,24.45
2023-09-21T12:06:33.919Z,24.41
2023-09-21T12:09:24.206Z,24.25
2023-09-21T12:12:16.000Z,24.18
2023-09-21T12:15:06.962Z,23.84
2023-09-21T12:17:59.897Z,24.02
2023-09-21T12:20:51.388Z,24.21
2023-09-21T12:23:41.876Z,24.18
2023-09-21T12:26:32.397Z,24.28
2023-09-21T12:29:24.142Z,24.18
2023-09-21T12:32:14.415Z,24.21
2023-09-21T12:35:09.340Z,24.35
2023-09-21T12:37:59.667Z,23.92
2023-09-21T12:40:52.238Z,24.50
2023-09-21T12:43:44.587Z,24.20
2023-09-21T12:46:35.015Z,23.68
2023-09-21T12:49:25.329Z,24.31
2023-09-21T12:52:18.223Z,24.49
2023-09-21T12:55:10.060Z,24.56
2023-09-21T12:58:01.331Z,24.78
2023-09-21T13:00:54.135Z,24.17
2023-09-21T13:03:44.694Z,23.59
2023-09-21T13:06:35.892Z,24.61
2023-09-21T13:09:45.645Z,24.49
2023-09-21T13:12:40.888Z,24.58
2023-09-21T13:15:31.820Z,24.77
2023-09-21T13:18:24.442Z,24.21
2023-09-21T13:21:17.384Z,24.70
2023-09-21T13:24:08.719Z,24.78
2023-09-21T13:27:01.648Z,24.57
2023-09-21T13:29:51.958Z,25.13
2023-09-21T13:32:42.250Z,24.19
2023-09-21T13:35:35.099Z,24.24
2023-09-21T13:38:27.081Z,24.41
2023-09-21T13:41:17.633Z,24.42
2023-09-21T13:44:12.241Z,23.61
2023-09-21T13:47:02.673Z,23.79
2023-09-21T13:49:53.325Z,23.86
2023-09-21T13:52:43.817Z,23.78
2023-09-21T13:55:34.070Z,23.44
2023-09-21T13:58:24.361Z,23.75
2023-09-21T14:01:21.072Z,23.54
2023-09-21T14:04:11.470Z,23.35
2023-09-21T14:07:01.882Z,23.37
2023-09-21T14:09:52.137Z,23.85
2023-09-21T14:12:42.607Z,23.92
2023-09-21T14:15:32.923Z,24.02
2023-09-21T14:18:25.769Z,23.62
2023-09-21T14:21:16.056Z,24.41
2023-09-21T14:24:06.925Z,23.61
2023-09-21T14:26:57.246Z,22.93
2023-09-21T14:29:47.492Z,23.89
2023-09-21T14:32:38.272Z,24.66
2023-09-21T14:35:31.388Z,23.89
2023-09-21T14:38:22.233Z,24.46
2023-09-21T14:41:12.561Z,23.83
2023-09-21T14:44:03.032Z,24.12
2023-09-21T14:46:53.335Z,23.78
2023-09-21T14:49:43.870Z,24.38
2023-09-21T14:52:36.880Z,24.29
2023-09-21T14:55:27.276Z,24.14
2023-09-21T14:58:17.524Z,23.85
2023-09-21T15:01:07.964Z,23.92
2023-09-21T15:03:58.438Z,24.63
2023-09-21T15:06:51.014Z,24.10
2023-09-21T15:09:46.204Z,23.71
2023-09-21T15:12:37.149Z,23.64
2023-09-21T15:15:27.606Z,23.89
2023-09-21T15:21:10.101Z,23.73
2023-09-21T15:24:02.138Z,23.52
2023-09-21T15:26:57.959Z,24.22
2023-09-21T15:29:51.020Z,24.25
2023-09-21T15:32:41.386Z,23.99
2023-09-21T15:35:31.874Z,24.67
2023-09-21T15:38:22.402Z,24.17
2023-09-21T15:41:14.749Z,24.91
2023-09-21T15:44:08.456Z,25.12
2023-09-21T15:46:59.900Z,24.18
2023-09-21T15:49:50.592Z,24.14
2023-09-21T15:52:40.892Z,23.35
2023-09-21T15:55:31.557Z,23.85
2023-09-21T15:58:22.492Z,23.98
2023-09-21T16:01:15.759Z,24.37
2023-09-21T16:04:08.744Z,23.59
2023-09-21T16:07:00.087Z,23.89
2023-09-21T16:09:50.475Z,23.82
2023-09-21T16:12:40.902Z,23.52
2023-09-21T16:15:31.480Z,23.16
2023-09-21T16:18:24.509Z,23.12
2023-09-21T16:21:15.331Z,23.28
2023-09-21T16:24:06.161Z,22.86
2023-09-21T16:27:00.065Z,23.86
2023-09-21T16:29:50.967Z,24.05
2023-09-21T16:32:41.263Z,24.01
2023-09-21T16:35:37.385Z,23.44
2023-09-21T16:38:27.623Z,23.40
2023-09-21T16:41:18.564Z,23.54
2023-09-21T16:44:09.253Z,23.82
2023-09-21T16:46:59.596Z,23.24
2023-09-21T16:49:50.521Z,23.38
2023-09-21T16:52:43.476Z,23.32
2023-09-21T16:55:34.821Z,24.16
2023-09-21T16:58:25.132Z,24.36
2023-09-21T17:01:16.037Z,24.03
2023-09-21T17:04:07.313Z,24.21
2023-09-21T17:06:58.257Z,24.35
2023-09-21T17:09:51.263Z,23.30
2023-09-21T17:12:42.168Z,22.94
2023-09-21T17:15:33.329Z,22.72
2023-09-21T17:18:25.275Z,22.19
2023-09-21T17:21:16.657Z,22.47
2023-09-21T17:24:07.619Z,23.38
2023-09-21T17:27:00.580Z,22.14
2023-09-21T17:29:51.774Z,22.37
2023-09-21T17:32:42.764Z,21.79
2023-09-21T17:35:33.701Z,22.54
2023-09-21T17:38:24.090Z,22.75
2023-09-21T17:41:14.468Z,22.24
2023-09-21T17:44:09.102Z,21.96
2023-09-21T17:47:00.473Z,23.33
2023-09-21T17:49:50.824Z,22.62
2023-09-21T17:52:41.855Z,23.01
2023-09-21T17:55:32.227Z,23.00
2023-09-21T17:58:22.650Z,22.59
2023-09-21T18:01:15.639Z,22.15
2023-09-21T18:04:06.713Z,22.65
2023-09-21T18:06:57.806Z,22.54
2023-09-21T18:09:48.120Z,22.62
2023-09-21T18:12:38.514Z,22.35
2023-09-21T18:15:29.153Z,22.73
2023-09-21T18:18:22.670Z,22.78
2023-09-21T18:21:13.777Z,23.16
2023-09-21T18:24:04.167Z,23.41
2023-09-21T18:26:55.439Z,23.23
2023-09-21T18:29:45.753Z,23.53
2023-09-21T18:32:36.097Z,23.46
2023-09-21T18:35:29.724Z,23.72
2023-09-21T18:38:20.594Z,23.12
2023-09-21T18:41:11.016Z,23.05
2023-09-21T18:44:02.150Z,23.67
2023-09-21T18:46:52.629Z,23.44
2023-09-21T18:49:43.457Z,23.38
2023-09-21T18:52:37.322Z,22.94
2023-09-21T18:55:27.600Z,22.17
2023-09-21T18:58:17.860Z,22.68
2023-09-21T19:01:13.272Z,22.91
2023-09-21T19:04:03.677Z,22.32
2023-09-21T19:06:54.503Z,21.86
2023-09-21T19:09:47.438Z,21.88
2023-09-21T19:12:38.320Z,21.58
2023-09-21T19:15:28.586Z,22.14
2023-09-21T19:18:19.390Z,22.66
2023-09-21T19:21:11.079Z,22.32
2023-09-21T19:24:02.250Z,22.27
2023-09-21T19:26:55.906Z,22.26
2023-09-21T19:29:46.248Z,22.09
2023-09-21T19:32:37.613Z,22.40
2023-09-21T19:35:28.021Z,21.96
2023-09-21T19:38:18.262Z,21.77
2023-09-21T19:41:08.631Z,21.43
2023-09-21T19:44:01.695Z,20.92
2023-09-21T19:46:52.507Z,20.95
2023-09-21T19:49:43.444Z,20.79
2023-09-21T19:52:34.012Z,21.53
2023-09-21T19:55:24.264Z,21.78
2023-09-21T19:58:15.680Z,21.04
2023-09-21T20:01:09.809Z,21.17
2023-09-21T20:04:00.727Z,21.50
2023-09-21T20:06:51.688Z,21.77
2023-09-21T20:09:42.984Z,21.79
2023-09-21T20:12:34.184Z,21.87
2023-09-21T20:15:24.513Z,21.11
2023-09-21T20:18:17.379Z,21.95
2023-09-21T20:21:08.451Z,21.63
2023-09-21T20:23:58.723Z,21.56
2023-09-21T20:26:49.035Z,22.08
2023-09-21T20:29:40.006Z,21.62
2023-09-21T20:32:31.027Z,21.50
2023-09-21T20:35:25.235Z,22.06
2023-09-21T20:38:15.543Z,21.08
2023-09-21T20:41:06.472Z,21.53
2023-09-21T20:43:56.695Z,21.72
2023-09-21T20:46:46.942Z,21.63
2023-09-21T20:49:37.281Z,21.60
2023-09-21T20:52:30.164Z,21.56
2023-09-21T20:55:20.400Z,20.59
2023-09-21T20:58:10.651Z,20.07
2023-09-21T21:01:01.101Z,20.94
2023-09-21T21:03:53.493Z,21.53
2023-09-21T21:06:44.036Z,21.63
2023-09-21T21:09:37.558Z,20.94
2023-09-21T21:12:27.858Z,20.56
2023-09-21T21:15:18.110Z,21.14
2023-09-21T21:18:08.641Z,21.04
2023-09-21T21:20:58.993Z,21.44
2023-09-21T21:23:49.195Z,20.74
2023-09-21T21:26:42.054Z,20.07
2023-09-21T21:29:32.451Z,20.48
2023-09-21T21:32:23.858Z,20.56
2023-09-21T21:35:17.422Z,19.67
2023-09-21T21:38:07.727Z,20.13
2023-09-21T21:40:58.235Z,20.26
2023-09-21T21:43:51.120Z,19.99
2023-09-21T21:46:41.358Z,20.38
2023-09-21T21:49:32.267Z,20.47
2023-09-21T21:52:22.747Z,20.91
2023-09-21T21:55:13.259Z,21.02
2023-09-21T21:58:03.510Z,20.93
2023-09-21T22:00:57.110Z,20.61
2023-09-21T22:03:47.818Z,20.49
2023-09-21T22:06:38.389Z,20.79
2023-09-21T22:09:28.723Z,20.16
2023-09-21T22:12:19.662Z,20.08
2023-09-21T22:15:11.493Z,20.07
2023-09-21T22:18:04.417Z,20.14
2023-09-21T22:20:54.691Z,20.33
2023-09-21T22:23:45.256Z,20.57
2023-09-21T22:26:36.581Z,19.76
2023-09-21T22:29:26.948Z,19.29
2023-09-21T22:32:17.199Z,19.28
2023-09-21T22:35:11.764Z,18.99
2023-09-21T22:38:13.984Z,18.81
2023-09-21T22:41:05.421Z,18.67
2023-09-21T22:43:55.784Z,18.59
2023-09-21T22:46:49.340Z,18.68
2023-09-21T22:49:41.064Z,18.70
2023-09-21T22:52:35.150Z,18.77
2023-09-21T22:55:26.268Z,18.93
2023-09-21T22:58:16.921Z,18.85
2023-09-21T23:01:07.500Z,19.42
2023-09-21T23:03:58.101Z,19.38
2023-09-21T23:06:48.455Z,19.12
2023-09-21T23:09:41.380Z,19.51
2023-09-21T23:12:35.294Z,19.31
2023-09-21T23:15:26.325Z,18.95
2023-09-21T23:18:17.874Z,18.56
2023-09-21T23:21:10.238Z,18.44
2023-09-21T23:24:00.783Z,19.11
2023-09-21T23:26:54.919Z,19.38
2023-09-21T23:29:48.586Z,19.26
2023-09-21T23:32:40.068Z,18.98
2023-09-21T23:35:30.409Z,19.07
2023-09-21T23:38:20.946Z,19.31
2023-09-21T23:41:13.003Z,19.21
2023-09-21T23:44:05.934Z,19.11
2023-09-21T23:46:56.304Z,19.59
2023-09-21T23:49:47.231Z,18.24
2023-09-21T23:52:37.825Z,18.64
2023-09-21T23:55:28.091Z,19.05
2023-09-21T23:58:18.433Z,18.99
